createdAt,value
2019-05-11T00:01:04.568Z,14.32
2019-05-11T00:03:34.249Z,14.26
2019-05-11T00:06:03.922Z,14.25
2019-05-11T00:08:33.595Z,14.16
2019-05-11T00:11:03.252Z,14.12
2019-05-11T00:13:33.012Z,14.12
2019-05-11T00:16:02.719Z,14.18
2019-05-11T00:18:32.380Z,14.23
2019-05-11T00:21:02.055Z,14.27
2019-05-11T00:23:31.864Z,14.33
2019-05-11T00:26:01.705Z,14.43
2019-05-11T00:28:31.371Z,14.47
2019-05-11T00:31:01.036Z,14.48
2019-05-11T00:33:30.687Z,14.50
2019-05-11T00:36:00.587Z,14.54
2019-05-11T00:38:30.259Z,14.57
2019-05-11T00:40:59.969Z,14.60
2019-05-11T00:43:29.628Z,14.62
2019-05-11T00:45:59.293Z,14.60
2019-05-11T00:48:28.970Z,14.60
2019-05-11T00:50:58.662Z,14.56
2019-05-11T00:53:28.328Z,14.49
2019-05-11T00:55:58.019Z,14.46
2019-05-11T00:58:27.678Z,14.37
2019-05-11T01:00:57.372Z,14.31
2019-05-11T01:03:27.057Z,14.27
2019-05-11T01:05:56.750Z,14.23
2019-05-11T01:08:26.405Z,14.21
2019-05-11T01:10:56.203Z,14.24
2019-05-11T01:13:25.947Z,14.25
2019-05-11T01:15:55.672Z,14.29
2019-05-11T01:18:25.341Z,14.35
2019-05-11T01:20:55.016Z,14.42
2019-05-11T01:23:24.718Z,14.53
2019-05-11T01:25:54.399Z,14.57
2019-05-11T01:28:24.074Z,14.60
2019-05-11T01:30:53.774Z,14.63
2019-05-11T01:33:23.441Z,14.64
2019-05-11T01:35:53.133Z,14.60
2019-05-11T01:38:22.776Z,14.59
2019-05-11T01:40:58.577Z,14.64
2019-05-11T01:43:23.915Z,14.65
2019-05-11T01:45:53.568Z,14.58
2019-05-11T01:48:23.287Z,14.50
2019-05-11T01:50:52.964Z,14.37
2019-05-11T01:53:22.681Z,14.22
2019-05-11T01:55:52.344Z,14.13
2019-05-11T01:58:22.032Z,14.09
2019-05-11T02:00:51.708Z,14.11
2019-05-11T02:03:21.410Z,14.13
2019-05-11T02:05:51.760Z,14.12
2019-05-11T02:08:21.631Z,14.10
2019-05-11T02:10:51.334Z,14.09
2019-05-11T02:13:21.011Z,14.02
2019-05-11T02:15:50.664Z,14.00
2019-05-11T02:18:20.355Z,13.90
2019-05-11T02:20:50.052Z,13.82
2019-05-11T02:23:19.769Z,13.71
2019-05-11T02:25:49.414Z,13.58
2019-05-11T02:28:19.083Z,13.56
2019-05-11T02:30:48.756Z,13.41
2019-05-11T02:33:18.454Z,13.37
2019-05-11T02:35:48.132Z,13.25
2019-05-11T02:38:17.788Z,13.24
2019-05-11T02:40:47.447Z,13.22
2019-05-11T02:43:17.142Z,13.18
2019-05-11T02:45:46.815Z,13.11
2019-05-11T02:48:16.477Z,13.05
2019-05-11T02:50:46.126Z,13.08
2019-05-11T02:53:15.792Z,13.05
2019-05-11T02:55:45.465Z,13.02
2019-05-11T02:58:15.158Z,12.98
2019-05-11T03:00:45.614Z,12.96
2019-05-11T03:03:15.301Z,12.93
2019-05-11T03:05:44.973Z,12.92
2019-05-11T03:08:14.669Z,12.94
2019-05-11T03:10:44.345Z,12.96
2019-05-11T03:13:14.016Z,12.99
2019-05-11T03:15:43.707Z,13.02
2019-05-11T03:18:13.369Z,13.11
2019-05-11T03:20:43.051Z,13.18
2019-05-11T03:23:12.732Z,13.23
2019-05-11T03:25:42.421Z,13.30
2019-05-11T03:28:12.102Z,13.34
2019-05-11T03:30:41.798Z,13.36
2019-05-11T03:33:11.488Z,13.38
2019-05-11T03:35:41.334Z,13.45
2019-05-11T03:38:11.013Z,13.52
2019-05-11T03:40:40.686Z,13.62
2019-05-11T03:43:10.337Z,13.63
2019-05-11T03:45:40.063Z,13.71
2019-05-11T03:48:09.729Z,13.73
2019-05-11T03:50:39.421Z,13.77
2019-05-11T03:53:09.126Z,13.82
2019-05-11T03:55:38.813Z,13.94
2019-05-11T03:58:08.619Z,14.18
2019-05-11T04:00:38.433Z,14.61
2019-05-11T04:03:08.081Z,14.98
2019-05-11T04:05:37.576Z,15.17
2019-05-11T04:08:07.094Z,15.28
2019-05-11T04:10:36.518Z,15.38
2019-05-11T04:13:05.926Z,15.36
2019-05-11T04:15:35.342Z,15.31
2019-05-11T04:18:04.761Z,15.41
2019-05-11T04:20:34.228Z,15.44
2019-05-11T04:23:03.643Z,15.52
2019-05-11T04:25:33.057Z,15.62
2019-05-11T04:28:02.492Z,15.74
2019-05-11T04:30:31.917Z,15.83
2019-05-11T04:33:01.369Z,16.12
2019-05-11T04:35:30.787Z,16.24
2019-05-11T04:38:00.226Z,16.49
2019-05-11T04:40:29.661Z,17.63
2019-05-11T04:42:59.092Z,19.16
2019-05-11T04:45:28.534Z,19.99
2019-05-11T04:47:57.949Z,19.76
2019-05-11T04:50:27.413Z,20.31
2019-05-11T04:52:56.895Z,22.23
2019-05-11T04:55:26.383Z,24.03
2019-05-11T04:57:55.819Z,25.06
2019-05-11T05:00:25.350Z,26.85
2019-05-11T05:02:54.765Z,28.13
2019-05-11T05:05:24.182Z,28.45
2019-05-11T05:08:07.403Z,27.64
2019-05-11T05:10:24.950Z,27.08
2019-05-11T05:13:08.516Z,28.54
2019-05-11T05:15:25.493Z,29.12
2019-05-11T05:17:54.926Z,29.16
2019-05-11T05:20:24.426Z,30.58
2019-05-11T05:22:53.840Z,29.46
2019-05-11T05:25:23.258Z,30.02
2019-05-11T05:27:52.681Z,30.58
2019-05-11T05:30:22.127Z,29.77
2019-05-11T05:32:51.561Z,29.92
2019-05-11T05:35:20.993Z,31.63
2019-05-11T05:37:50.415Z,31.53
2019-05-11T05:40:19.863Z,32.16
2019-05-11T05:42:49.396Z,31.80
2019-05-11T05:45:18.898Z,30.25
2019-05-11T05:47:48.413Z,30.34
2019-05-11T05:50:17.839Z,31.63
2019-05-11T05:52:47.259Z,31.55
2019-05-11T05:55:16.694Z,30.42
2019-05-11T05:57:46.133Z,31.20
2019-05-11T06:00:15.570Z,30.83
2019-05-11T06:02:45.002Z,29.95
2019-05-11T06:05:14.512Z,30.50
2019-05-11T06:07:43.925Z,29.89
2019-05-11T06:10:13.413Z,30.00
2019-05-11T06:12:42.837Z,29.18
2019-05-11T06:15:12.246Z,28.84
2019-05-11T06:17:41.713Z,28.25
2019-05-11T06:20:11.797Z,28.11
2019-05-11T06:22:41.288Z,27.78
2019-05-11T06:25:10.899Z,26.60
2019-05-11T06:27:40.329Z,25.60
2019-05-11T06:30:09.892Z,24.97
2019-05-11T06:32:39.316Z,24.42
2019-05-11T06:35:08.764Z,23.99
2019-05-11T06:37:38.184Z,23.87
2019-05-11T06:40:07.793Z,23.54
2019-05-11T06:42:37.318Z,23.18
2019-05-11T06:45:06.854Z,23.53
2019-05-11T06:47:36.270Z,23.23
2019-05-11T06:50:06.313Z,23.28
2019-05-11T06:52:35.773Z,23.51
2019-05-11T06:55:05.663Z,23.38
2019-05-11T06:57:35.082Z,23.86
2019-05-11T07:00:04.525Z,24.55
2019-05-11T07:02:33.947Z,25.21
2019-05-11T07:05:03.487Z,25.72
2019-05-11T07:07:46.479Z,26.15
2019-05-11T07:10:04.295Z,26.37
2019-05-11T07:12:33.705Z,26.77
2019-05-11T07:15:03.187Z,27.02
2019-05-11T07:17:32.619Z,27.10
2019-05-11T07:20:02.091Z,26.45
2019-05-11T07:22:31.487Z,27.15
2019-05-11T07:25:00.925Z,27.10
2019-05-11T07:27:31.446Z,27.50
2019-05-11T07:30:00.883Z,26.76
2019-05-11T07:32:30.300Z,26.50
2019-05-11T07:34:59.727Z,25.97
2019-05-11T07:37:29.148Z,25.33
2019-05-11T07:39:58.607Z,24.92
2019-05-11T07:42:28.750Z,24.88
2019-05-11T07:44:58.420Z,25.04
2019-05-11T07:47:28.002Z,25.46
2019-05-11T07:49:58.023Z,26.29
2019-05-11T07:52:28.735Z,26.45
2019-05-11T07:54:58.429Z,26.21
2019-05-11T07:57:28.511Z,25.93
2019-05-11T07:59:58.243Z,25.58
2019-05-11T08:02:29.262Z,25.30
2019-05-11T08:04:59.120Z,25.64
2019-05-11T08:07:28.732Z,25.84
2019-05-11T08:09:58.826Z,26.01
2019-05-11T08:12:28.717Z,25.73
2019-05-11T08:15:08.635Z,25.73
2019-05-11T08:17:29.599Z,26.10
2019-05-11T08:19:59.082Z,26.01
2019-05-11T08:22:28.636Z,25.77
2019-05-11T08:24:58.995Z,25.59
2019-05-11T08:27:28.709Z,25.84
2019-05-11T08:29:58.334Z,25.83
2019-05-11T08:32:28.662Z,25.66
2019-05-11T08:34:58.401Z,25.82
2019-05-11T08:37:28.518Z,25.24
2019-05-11T08:39:58.644Z,24.81
2019-05-11T08:42:29.049Z,25.30
2019-05-11T08:45:14.823Z,25.14
2019-05-11T08:47:29.750Z,25.11
2019-05-11T08:49:59.211Z,25.03
2019-05-11T08:52:28.720Z,25.12
2019-05-11T08:54:58.291Z,24.85
2019-05-11T08:57:28.549Z,24.84
2019-05-11T08:59:58.219Z,24.68
2019-05-11T09:02:27.983Z,24.56
2019-05-11T09:04:58.894Z,24.65
2019-05-11T09:07:28.552Z,24.59
2019-05-11T09:09:58.704Z,24.61
2019-05-11T09:12:28.935Z,24.60
2019-05-11T09:14:58.619Z,24.73
2019-05-11T09:17:28.897Z,24.88
2019-05-11T09:19:58.673Z,24.91
2019-05-11T09:22:28.521Z,24.56
2019-05-11T09:24:58.371Z,24.62
2019-05-11T09:27:28.650Z,24.90
2019-05-11T09:29:58.883Z,24.98
2019-05-11T09:32:28.759Z,25.12
2019-05-11T09:34:58.209Z,25.25
2019-05-11T09:37:27.923Z,25.22
2019-05-11T09:39:58.378Z,25.18
2019-05-11T09:42:28.669Z,25.38
2019-05-11T09:44:58.286Z,25.77
2019-05-11T09:47:28.102Z,26.00
2019-05-11T09:49:59.958Z,26.23
2019-05-11T09:52:32.617Z,26.02
2019-05-11T09:55:02.283Z,26.18
2019-05-11T09:57:31.894Z,26.68
2019-05-11T10:00:01.382Z,27.04
2019-05-11T10:02:30.895Z,27.29
2019-05-11T10:05:00.535Z,27.82
2019-05-11T10:07:32.472Z,27.24
2019-05-11T10:10:01.289Z,27.43
2019-05-11T10:12:30.881Z,27.54
2019-05-11T10:15:00.416Z,27.85
2019-05-11T10:17:29.925Z,27.99
2019-05-11T10:19:59.362Z,27.84
2019-05-11T10:22:28.778Z,28.28
2019-05-11T10:24:58.410Z,28.76
2019-05-11T10:27:28.075Z,29.04
2019-05-11T10:29:58.980Z,29.19
2019-05-11T10:32:28.841Z,29.45
2019-05-11T10:34:58.530Z,29.80
2019-05-11T10:37:28.362Z,28.66
2019-05-11T10:39:57.969Z,28.07
2019-05-11T10:42:28.329Z,27.87
2019-05-11T10:44:58.343Z,28.37
2019-05-11T10:47:28.040Z,28.65
2019-05-11T10:49:57.983Z,27.84
2019-05-11T10:52:28.522Z,27.59
2019-05-11T10:54:58.724Z,27.26
2019-05-11T10:57:28.506Z,27.64
2019-05-11T10:59:58.162Z,28.72
2019-05-11T11:02:28.040Z,29.38
2019-05-11T11:04:58.874Z,30.15
2019-05-11T11:07:29.013Z,31.27
2019-05-11T11:09:58.571Z,30.00
2019-05-11T11:12:28.188Z,31.10
2019-05-11T11:14:58.731Z,31.10
2019-05-11T11:17:28.862Z,31.14
2019-05-11T11:19:58.383Z,29.75
2019-05-11T11:22:39.014Z,30.27
2019-05-11T11:24:59.359Z,30.27
2019-05-11T11:27:29.244Z,30.72
2019-05-11T11:29:58.928Z,31.93
2019-05-11T11:32:28.404Z,32.96
2019-05-11T11:34:57.973Z,32.60
2019-05-11T11:37:28.075Z,32.79
2019-05-11T11:39:58.199Z,32.31
2019-05-11T11:42:28.310Z,31.76
2019-05-11T11:44:58.796Z,31.72
2019-05-11T11:47:28.465Z,31.33
2019-05-11T11:49:58.495Z,30.21
2019-05-11T11:52:27.972Z,29.66
2019-05-11T11:54:58.679Z,30.16
2019-05-11T11:57:28.450Z,30.75
2019-05-11T11:59:58.844Z,32.25
2019-05-11T12:02:28.355Z,33.89
2019-05-11T12:04:58.333Z,34.01
2019-05-11T12:07:28.524Z,34.52
2019-05-11T12:09:58.904Z,35.34
2019-05-11T12:12:28.403Z,35.66
2019-05-11T12:14:58.491Z,35.48
2019-05-11T12:17:28.661Z,36.58
2019-05-11T12:19:58.701Z,35.31
2019-05-11T12:22:27.999Z,34.85
2019-05-11T12:24:58.940Z,35.28
2019-05-11T12:27:28.873Z,34.76
2019-05-11T12:29:58.418Z,33.51
2019-05-11T12:32:42.147Z,34.50
2019-05-11T12:35:11.797Z,34.32
2019-05-11T12:37:41.320Z,33.93
2019-05-11T12:40:10.887Z,34.37
2019-05-11T12:42:40.449Z,34.84
2019-05-11T12:45:09.916Z,33.67
2019-05-11T12:47:39.499Z,33.24
2019-05-11T12:50:09.059Z,33.37
2019-05-11T12:52:38.577Z,33.57
2019-05-11T12:55:08.700Z,34.35
2019-05-11T12:57:38.812Z,35.05
2019-05-11T13:00:08.765Z,35.17
2019-05-11T13:02:38.951Z,35.02
2019-05-11T13:05:08.837Z,33.77
2019-05-11T13:07:39.195Z,33.96
2019-05-11T13:10:09.088Z,33.45
2019-05-11T13:12:38.756Z,32.49
2019-05-11T13:15:08.522Z,31.36
2019-05-11T13:17:40.808Z,31.86
2019-05-11T13:20:12.786Z,32.75
2019-05-11T13:22:41.618Z,33.14
2019-05-11T13:25:11.118Z,34.14
2019-05-11T13:27:40.583Z,33.86
2019-05-11T13:30:10.649Z,34.81
2019-05-11T13:32:40.091Z,33.89
2019-05-11T13:35:09.495Z,33.05
2019-05-11T13:37:39.087Z,33.24
2019-05-11T13:40:08.672Z,33.13
2019-05-11T13:42:38.723Z,31.51
2019-05-11T13:45:08.637Z,30.91
2019-05-11T13:47:51.585Z,31.36
2019-05-11T13:50:09.433Z,32.06
2019-05-11T13:52:39.094Z,31.44
2019-05-11T13:55:09.040Z,29.05
2019-05-11T13:57:39.642Z,29.05
2019-05-11T14:00:09.116Z,27.91
2019-05-11T14:02:38.668Z,27.57
2019-05-11T14:05:08.689Z,26.98
2019-05-11T14:07:38.534Z,26.43
2019-05-11T14:10:08.344Z,26.29
2019-05-11T14:12:38.493Z,26.04
2019-05-11T14:15:08.782Z,25.71
2019-05-11T14:17:38.297Z,25.58
2019-05-11T14:20:09.084Z,25.58
2019-05-11T14:22:38.898Z,25.26
2019-05-11T14:25:08.369Z,25.10
2019-05-11T14:30:09.957Z,24.53
2019-05-11T14:32:21.429Z,24.72
2019-05-11T14:32:39.424Z,24.38
2019-05-11T14:35:12.059Z,24.17
2019-05-11T14:37:40.015Z,24.09
2019-05-11T14:40:09.453Z,23.98
2019-05-11T14:42:38.928Z,23.86
2019-05-11T14:45:08.697Z,23.87
2019-05-11T14:47:39.063Z,23.86
2019-05-11T14:50:09.473Z,23.81
2019-05-11T14:52:39.213Z,23.73
2019-05-11T14:55:08.757Z,23.81
2019-05-11T14:57:39.627Z,23.74
2019-05-11T15:00:10.256Z,23.62
2019-05-11T15:02:49.860Z,23.60
2019-05-11T15:05:19.891Z,23.59
2019-05-11T15:07:52.383Z,23.52
2019-05-11T15:10:21.537Z,23.62
2019-05-11T15:12:50.975Z,23.53
2019-05-11T15:15:20.483Z,23.59
2019-05-11T15:17:49.887Z,23.55
2019-05-11T15:20:19.346Z,23.54
2019-05-11T15:22:49.210Z,23.46
2019-05-11T15:25:19.518Z,23.34
2019-05-11T15:27:49.457Z,23.17
2019-05-11T15:30:18.914Z,22.99
2019-05-11T15:32:48.583Z,22.86
2019-05-11T15:35:18.779Z,22.78
2019-05-11T15:37:48.657Z,22.72
2019-05-11T15:40:19.296Z,22.68
2019-05-11T15:42:48.954Z,22.68
2019-05-11T15:45:18.886Z,22.69
2019-05-11T15:47:48.991Z,22.66
2019-05-11T15:50:19.168Z,22.70
2019-05-11T15:52:49.138Z,22.62
2019-05-11T15:55:19.206Z,22.55
2019-05-11T15:57:48.843Z,22.49
2019-05-11T16:00:19.454Z,22.44
2019-05-11T16:02:49.290Z,22.36
2019-05-11T16:05:18.853Z,22.33
2019-05-11T16:07:49.211Z,22.28
2019-05-11T16:10:19.334Z,22.23
2019-05-11T16:12:49.101Z,22.15
2019-05-11T16:15:19.514Z,22.08
2019-05-11T16:17:49.653Z,21.99
2019-05-11T16:20:19.099Z,21.95
2019-05-11T16:22:48.578Z,21.85
2019-05-11T16:25:19.736Z,21.78
2019-05-11T16:27:49.231Z,21.72
2019-05-11T16:30:21.579Z,21.63
2019-05-11T16:32:49.901Z,21.59
2019-05-11T16:35:19.375Z,21.54
2019-05-11T16:37:48.944Z,21.45
2019-05-11T16:40:20.837Z,21.38
2019-05-11T16:42:49.520Z,21.31
2019-05-11T16:45:19.471Z,21.20
2019-05-11T16:47:49.014Z,21.11
2019-05-11T16:50:18.562Z,21.02
2019-05-11T16:52:48.565Z,20.92
2019-05-11T16:55:18.668Z,20.79
2019-05-11T16:57:48.847Z,20.67
2019-05-11T17:00:18.534Z,20.55
2019-05-11T17:02:48.962Z,20.49
2019-05-11T17:05:26.453Z,20.39
2019-05-11T17:07:50.225Z,20.30
2019-05-11T17:10:19.838Z,20.18
2019-05-11T17:12:49.271Z,20.05
2019-05-11T17:15:19.086Z,19.99
2019-05-11T17:17:49.121Z,19.87
2019-05-11T17:20:19.162Z,19.74
2019-05-11T17:22:48.719Z,19.61
2019-05-11T17:25:19.166Z,19.46
2019-05-11T17:27:48.973Z,19.32
2019-05-11T17:30:19.589Z,19.13
2019-05-11T17:32:49.135Z,19.00
2019-05-11T17:35:18.704Z,18.87
2019-05-11T17:37:48.577Z,18.73
2019-05-11T17:40:20.514Z,18.59
2019-05-11T17:42:48.191Z,18.47
2019-05-11T17:45:19.006Z,18.34
2019-05-11T17:47:47.105Z,18.15
2019-05-11T17:50:18.896Z,17.99
2019-05-11T17:52:48.062Z,17.82
2019-05-11T17:55:18.361Z,17.70
2019-05-11T17:57:49.188Z,17.60
2019-05-11T18:00:20.156Z,17.47
2019-05-11T18:02:49.832Z,17.42
2019-05-11T18:05:19.230Z,17.36
2019-05-11T18:07:48.660Z,17.28
2019-05-11T18:10:18.447Z,17.14
2019-05-11T18:12:48.835Z,17.05
2019-05-11T18:15:18.911Z,16.95
2019-05-11T18:17:49.056Z,16.79
2019-05-11T18:20:21.922Z,16.68
2019-05-11T18:22:50.406Z,16.55
2019-05-11T18:25:19.809Z,16.44
2019-05-11T18:27:49.228Z,16.35
2019-05-11T18:30:18.744Z,16.24
2019-05-11T18:32:48.984Z,16.16
2019-05-11T18:35:19.417Z,16.06
2019-05-11T18:37:49.320Z,15.96
2019-05-11T18:40:19.061Z,15.86
2019-05-11T18:42:49.078Z,15.79
2019-05-11T18:45:19.220Z,15.73
2019-05-11T18:47:49.294Z,15.65
2019-05-11T18:50:29.871Z,15.59
2019-05-11T18:52:50.012Z,15.51
2019-05-11T18:55:19.567Z,15.47
2019-05-11T18:57:49.438Z,15.41
2019-05-11T19:00:18.988Z,15.35
2019-05-11T19:02:49.056Z,15.30
2019-05-11T19:05:18.279Z,15.24
2019-05-11T19:07:48.318Z,15.17
2019-05-11T19:10:17.911Z,15.14
2019-05-11T19:12:48.784Z,15.12
2019-05-11T19:15:19.120Z,15.06
2019-05-11T19:17:49.366Z,15.00
2019-05-11T19:20:20.665Z,15.01
2019-05-11T19:22:50.077Z,15.00
2019-05-11T19:25:19.501Z,14.98
2019-05-11T19:27:50.766Z,14.98
2019-05-11T19:30:20.095Z,14.97
2019-05-11T19:32:49.519Z,14.93
2019-05-11T19:35:21.109Z,14.87
2019-05-11T19:37:50.274Z,14.80
2019-05-11T19:40:19.693Z,14.79
2019-05-11T19:42:55.690Z,14.77
2019-05-11T19:45:25.122Z,14.72
2019-05-11T19:47:54.527Z,14.68
2019-05-11T19:50:23.983Z,14.57
2019-05-11T19:52:53.496Z,14.53
2019-05-11T19:55:22.954Z,14.52
2019-05-11T19:57:52.385Z,14.49
2019-05-11T20:00:21.928Z,14.51
2019-05-11T20:02:51.455Z,14.56
2019-05-11T20:05:20.881Z,14.57
2019-05-11T20:07:50.334Z,14.61
2019-05-11T20:10:19.992Z,14.66
2019-05-11T20:12:49.468Z,14.69
2019-05-11T20:15:19.313Z,14.65
2019-05-11T20:17:49.257Z,14.59
2019-05-11T20:20:19.119Z,14.57
2019-05-11T20:22:48.831Z,14.58
2019-05-11T20:25:19.292Z,14.55
2019-05-11T20:27:49.384Z,14.50
2019-05-11T20:30:19.354Z,14.47
2019-05-11T20:32:49.494Z,14.47
2019-05-11T20:35:18.957Z,14.43
2019-05-11T20:37:48.429Z,14.40
2019-05-11T20:40:18.506Z,14.38
2019-05-11T20:42:48.700Z,14.37
2019-05-11T20:45:18.706Z,14.37
2019-05-11T20:47:49.030Z,14.37
2019-05-11T20:50:18.960Z,14.36
2019-05-11T20:52:48.686Z,14.34
2019-05-11T20:55:18.564Z,14.33
2019-05-11T20:57:48.458Z,14.30
2019-05-11T21:00:18.721Z,14.30
2019-05-11T21:02:48.946Z,14.25
2019-05-11T21:05:18.784Z,14.21
2019-05-11T21:07:48.261Z,14.20
2019-05-11T21:10:17.729Z,14.23
2019-05-11T21:12:47.148Z,14.22
2019-05-11T21:15:16.593Z,14.18
2019-05-11T21:17:48.145Z,14.14
2019-05-11T21:20:18.268Z,14.07
2019-05-11T21:22:48.715Z,14.05
2019-05-11T21:25:18.437Z,13.95
2019-05-11T21:27:48.649Z,13.86
2019-05-11T21:30:18.633Z,13.76
2019-05-11T21:32:48.227Z,13.68
2019-05-11T21:35:19.279Z,13.61
2019-05-11T21:37:48.998Z,13.54
2019-05-11T21:40:18.467Z,13.47
2019-05-11T21:42:47.898Z,13.37
2019-05-11T21:45:18.370Z,13.34
2019-05-11T21:47:49.025Z,13.27
2019-05-11T21:50:19.243Z,13.18
2019-05-11T21:52:48.888Z,13.16
2019-05-11T21:55:18.354Z,13.14
2019-05-11T21:57:49.812Z,13.11
2019-05-11T22:00:19.129Z,13.05
2019-05-11T22:02:48.799Z,13.09
2019-05-11T22:05:20.848Z,13.06
2019-05-11T22:07:49.686Z,13.02
2019-05-11T22:10:19.103Z,12.94
2019-05-11T22:12:49.146Z,12.87
2019-05-11T22:15:19.132Z,12.95
2019-05-11T22:17:48.556Z,12.97
2019-05-11T22:20:18.531Z,12.97
2019-05-11T22:22:48.100Z,12.98
2019-05-11T22:25:18.225Z,13.00
2019-05-11T22:27:48.865Z,13.02
2019-05-11T22:30:18.770Z,13.06
2019-05-11T22:32:48.355Z,13.15
2019-05-11T22:35:18.422Z,13.24
2019-05-11T22:37:49.077Z,13.21
2019-05-11T22:40:18.581Z,13.16
2019-05-11T22:42:48.012Z,13.10
2019-05-11T22:45:18.684Z,13.05
2019-05-11T22:47:48.474Z,12.99
2019-05-11T22:50:18.819Z,12.91
2019-05-11T22:52:48.723Z,12.91
2019-05-11T22:55:18.886Z,12.79
2019-05-11T22:57:48.869Z,12.72
2019-05-11T23:00:23.592Z,12.73
2019-05-11T23:02:52.993Z,12.65
2019-05-11T23:05:22.458Z,12.59
2019-05-11T23:07:51.899Z,12.63
2019-05-11T23:10:21.319Z,12.68
2019-05-11T23:12:50.737Z,12.69
2019-05-11T23:15:20.171Z,12.68
2019-05-11T23:17:49.588Z,12.68
2019-05-11T23:20:19.009Z,12.78
2019-05-11T23:22:56.980Z,12.84
2019-05-11T23:25:19.572Z,12.91
2019-05-11T23:27:49.183Z,12.92
2019-05-11T23:30:19.794Z,12.92
2019-05-11T23:32:49.989Z,12.94
2019-05-11T23:35:19.456Z,12.99
2019-05-11T23:37:49.889Z,13.09
2019-05-11T23:40:19.681Z,13.16
2019-05-11T23:42:49.412Z,13.15
2019-05-11T23:45:19.416Z,13.00
2019-05-11T23:47:49.240Z,12.88
2019-05-11T23:50:19.767Z,12.63
2019-05-11T23:53:05.103Z,12.52
2019-05-11T23:55:20.490Z,12.49
2019-05-11T23:57:50.008Z,12.33
